Terminal Aerodrome Forecast
Issued by NWS Cleveland, OH

Home | Current Version | Previous Version | Graphics & Text | Print | Product List | Glossary On
Versions: 1 2 3 4 5 6 7 8 9 10 11 12 13 14 15 16 17 18 19 20 21 22 23 24 25
510
FTUS41 KCLE 271917 AAA
TAFMFD
TAF AMD
KMFD 271917Z 2719/2818 22015G25KT P6SM SCT035 BKN050
      TEMPO 2719/2721 5SM -TSRA BKN030CB OVC060
     FM272100 23015G25KT P6SM BKN035
     FM280200 23012KT P6SM BKN030
     FM281500 17008KT P6SM BKN035=

USA.gov is the U.S. government's official web portal to all federal, state and local government web resources and services.